Time;durP1;ratioP1;P1;durP2;ratioP2;P2;SDS_P1;SDS_P2;PMS_P1;PMS_P2;Temp;Humidity;BMP_temperature;BMP_pressure;BME280_temperature;BME280_humidity;BME280_pressure;Samples;Min_cycle;Max_cycle;Signal;HPM_P1;HPM_P2
2023/07/31 00:01:03;;;;;;;;;;;16.60;91.60;;;;;;5082184;28;19912;-89
2023/07/31 00:03:29;;;;;;;;;;;16.70;91.60;;;;;;5064683;28;20012;-89
2023/07/31 00:05:54;;;;;;;;;;;16.70;91.30;;;;;;5073055;28;19912;-88
2023/07/31 00:08:20;;;;;;;;;;;16.60;91.30;;;;;;5074282;28;19923;-89
2023/07/31 00:10:45;;;;;;;;;;;16.60;91.60;;;;;;5064698;28;20326;-89
2023/07/31 00:13:10;;;;;;;;;;;16.70;91.40;;;;;;5073988;28;19912;-89
2023/07/31 00:15:36;;;;;;;;;;;16.80;91.60;;;;;;5079168;28;19968;-88
2023/07/31 00:18:01;;;;;;;;;;;16.70;91.60;;;;;;5072715;28;19913;-88
2023/07/31 00:20:27;;;;;;;;;;;16.70;91.60;;;;;;5063484;28;19913;-89
2023/07/31 00:22:52;;;;;;;;;;;16.70;91.70;;;;;;5073920;28;19913;-89
2023/07/31 00:25:18;;;;;;;;;;;16.60;91.70;;;;;;5070168;28;19909;-89
2023/07/31 00:27:44;;;;;;;;;;;16.70;91.70;;;;;;5064528;28;19916;-89
2023/07/31 00:30:10;;;;;;;;;;;16.80;91.60;;;;;;5070029;28;20289;-89
2023/07/31 00:32:35;;;;;;;;;;;16.70;91.70;;;;;;5062361;28;19913;-89
2023/07/31 00:35:01;;;;;;;;;;;16.70;91.70;;;;;;5073136;28;20409;-89
2023/07/31 00:37:27;;;;;;;;;;;16.70;91.50;;;;;;5073856;28;20015;-89
2023/07/31 00:39:52;;;;;;;;;;;16.70;91.50;;;;;;5069425;28;19916;-89
2023/07/31 00:42:18;;;;;;;;;;;16.70;91.40;;;;;;5067172;28;19908;-89
2023/07/31 00:44:43;;;;;;;;;;;16.70;91.60;;;;;;5071870;28;20396;-88
2023/07/31 00:47:09;;;;;;;;;;;16.70;91.70;;;;;;5075836;28;20251;-89
2023/07/31 00:49:34;;;;;;;;;;;16.70;91.60;;;;;;5075343;28;19923;-89
2023/07/31 00:52:00;;;;;;;;;;;16.60;91.50;;;;;;5073975;28;19917;-89
2023/07/31 00:54:26;;;;;;;;;;;16.60;91.40;;;;;;5071415;28;19924;-89
2023/07/31 00:56:52;;;;;;;;;;;16.60;91.60;;;;;;5064284;28;19912;-89
2023/07/31 00:59:18;;;;;;;;;;;16.70;91.70;;;;;;5070325;28;20022;-88
2023/07/31 01:01:44;;;;;;;;;;;16.60;91.60;;;;;;5071722;28;19979;-89
2023/07/31 01:04:09;;;;;;;;;;;16.60;91.60;;;;;;5070772;28;20015;-90
2023/07/31 01:06:44;;;;;;;;;;;16.60;91.90;;;;;;5055051;28;20334;-88
2023/07/31 01:09:28;;;;;;;;;;;16.60;91.50;;;;;;5072438;28;19908;-89
2023/07/31 01:11:57;;;;;;;;;;;16.70;91.30;;;;;;5071962;28;19916;-88
2023/07/31 01:14:22;;;;;;;;;;;16.60;91.40;;;;;;5069929;28;19908;-88
2023/07/31 01:16:47;;;;;;;;;;;16.60;91.40;;;;;;5071631;28;20378;-88
2023/07/31 01:19:14;;;;;;;;;;;16.60;91.30;;;;;;5064784;28;19917;-88
2023/07/31 01:21:58;;;;;;;;;;;16.80;91.00;;;;;;5069283;28;20066;-88
2023/07/31 01:24:38;;;;;;;;;;;16.80;90.90;;;;;;5072075;28;19917;-89
2023/07/31 01:27:10;;;;;;;;;;;16.80;91.00;;;;;;5050832;28;19933;-88
2023/07/31 01:29:35;;;;;;;;;;;16.80;90.70;;;;;;5066844;28;19948;-88
2023/07/31 01:32:01;;;;;;;;;;;16.80;90.30;;;;;;5081904;28;19924;-88
2023/07/31 01:34:27;;;;;;;;;;;16.80;90.30;;;;;;5064456;28;20009;-89
2023/07/31 01:36:52;;;;;;;;;;;16.80;90.40;;;;;;5070015;28;19912;-89
2023/07/31 01:39:20;;;;;;;;;;;16.80;90.10;;;;;;5071294;28;19958;-89
2023/07/31 01:41:45;;;;;;;;;;;16.90;90.20;;;;;;5065379;28;20469;-89
2023/07/31 01:44:11;;;;;;;;;;;16.90;89.80;;;;;;5068823;28;19999;-88
2023/07/31 01:46:42;;;;;;;;;;;16.90;89.60;;;;;;5064174;28;19970;-88
2023/07/31 01:49:07;;;;;;;;;;;16.90;89.90;;;;;;5071310;28;19914;-89
2023/07/31 01:51:34;;;;;;;;;;;16.90;89.50;;;;;;5068536;28;19912;-87
2023/07/31 01:54:02;;;;;;;;;;;16.90;89.70;;;;;;5063866;28;19921;-89
2023/07/31 01:56:28;;;;;;;;;;;17.00;89.50;;;;;;5063610;28;20270;-89
2023/07/31 01:58:54;;;;;;;;;;;17.00;89.20;;;;;;5062196;28;19913;-89
2023/07/31 02:01:19;;;;;;;;;;;17.00;89.00;;;;;;5058413;28;19909;-89
2023/07/31 02:03:44;;;;;;;;;;;16.90;89.40;;;;;;5051973;28;19919;-89
2023/07/31 02:06:10;;;;;;;;;;;17.00;89.20;;;;;;5051013;28;19954;-89
2023/07/31 02:08:35;;;;;;;;;;;17.10;88.70;;;;;;5058706;28;20011;-89
2023/07/31 02:11:01;;;;;;;;;;;17.10;88.80;;;;;;5057400;28;19967;-88
2023/07/31 02:13:26;;;;;;;;;;;17.00;88.50;;;;;;5064384;28;19912;-89
2023/07/31 02:15:52;;;;;;;;;;;17.00;88.60;;;;;;5066495;28;20348;-90
2023/07/31 02:18:17;;;;;;;;;;;17.00;88.40;;;;;;5070784;28;19920;-88
2023/07/31 02:20:46;;;;;;;;;;;16.90;88.60;;;;;;5053577;28;20366;-89
2023/07/31 02:23:11;;;;;;;;;;;17.00;88.30;;;;;;5054507;28;19913;-89
2023/07/31 02:25:36;;;;;;;;;;;17.00;88.20;;;;;;5063936;28;20435;-89
2023/07/31 02:28:02;;;;;;;;;;;17.00;88.40;;;;;;5066208;28;20388;-89
2023/07/31 02:30:27;;;;;;;;;;;17.00;87.80;;;;;;5060639;28;20381;-89
2023/07/31 02:32:53;;;;;;;;;;;16.90;87.60;;;;;;5064090;28;19931;-89
2023/07/31 02:35:18;;;;;;;;;;;17.00;87.60;;;;;;5055738;28;19909;-88
2023/07/31 02:37:44;;;;;;;;;;;16.90;88.10;;;;;;5059871;28;19909;-90
2023/07/31 02:40:09;;;;;;;;;;;17.00;88.00;;;;;;5065370;28;19908;-89
2023/07/31 02:42:35;;;;;;;;;;;17.00;87.60;;;;;;5067634;28;19909;-89
2023/07/31 02:45:00;;;;;;;;;;;17.00;87.50;;;;;;5065557;28;20016;-89
2023/07/31 02:47:26;;;;;;;;;;;17.00;87.40;;;;;;5064444;28;19915;-89
2023/07/31 02:49:51;;;;;;;;;;;16.90;87.50;;;;;;5067281;28;19913;-89
2023/07/31 02:52:17;;;;;;;;;;;17.00;87.20;;;;;;5068051;28;19925;-89
2023/07/31 02:54:42;;;;;;;;;;;16.90;87.40;;;;;;5069127;28;19934;-89
2023/07/31 02:57:08;;;;;;;;;;;17.00;87.20;;;;;;5065334;28;19913;-89
2023/07/31 02:59:33;;;;;;;;;;;17.00;87.30;;;;;;5063217;28;19915;-89
2023/07/31 03:01:58;;;;;;;;;;;17.00;86.90;;;;;;5058685;28;19913;-88
2023/07/31 03:04:24;;;;;;;;;;;17.10;86.90;;;;;;5070430;28;20382;-89
2023/07/31 03:06:49;;;;;;;;;;;17.00;86.40;;;;;;5056443;28;19936;-88
2023/07/31 03:09:15;;;;;;;;;;;17.00;86.50;;;;;;5055814;28;19927;-88
2023/07/31 03:11:40;;;;;;;;;;;16.90;87.10;;;;;;5060346;28;19915;-88
2023/07/31 03:14:06;;;;;;;;;;;17.00;86.90;;;;;;5066275;28;20192;-89
2023/07/31 03:16:31;;;;;;;;;;;17.00;86.60;;;;;;5058868;28;19908;-89
2023/07/31 03:18:56;;;;;;;;;;;17.00;86.50;;;;;;5060808;28;19956;-88
2023/07/31 03:21:23;;;;;;;;;;;17.00;86.70;;;;;;5061268;28;19939;-89
2023/07/31 03:23:48;;;;;;;;;;;17.00;86.60;;;;;;5053960;28;19924;-89
2023/07/31 03:26:13;;;;;;;;;;;17.00;86.50;;;;;;5062958;28;19909;-88
2023/07/31 03:28:39;;;;;;;;;;;16.90;86.90;;;;;;5065601;28;19920;-88
2023/07/31 03:31:04;;;;;;;;;;;16.90;86.90;;;;;;5068006;28;19908;-88
2023/07/31 03:33:30;;;;;;;;;;;16.90;86.90;;;;;;5064254;28;20003;-88
2023/07/31 03:35:55;;;;;;;;;;;16.90;86.60;;;;;;5058389;28;19913;-89
2023/07/31 03:38:21;;;;;;;;;;;17.00;86.40;;;;;;5058648;28;19909;-88
2023/07/31 03:40:46;;;;;;;;;;;16.90;86.80;;;;;;5053398;28;20035;-89
2023/07/31 03:43:12;;;;;;;;;;;17.00;86.50;;;;;;5071872;28;19915;-88
2023/07/31 03:45:37;;;;;;;;;;;17.00;86.90;;;;;;5064367;28;19916;-88
2023/07/31 03:48:04;;;;;;;;;;;17.00;86.70;;;;;;5056080;28;20062;-88
2023/07/31 03:50:29;;;;;;;;;;;17.00;86.70;;;;;;5057586;28;20426;-88
2023/07/31 03:52:54;;;;;;;;;;;17.00;86.50;;;;;;5063880;28;19921;-89
2023/07/31 03:55:21;;;;;;;;;;;17.00;86.60;;;;;;5061652;28;19909;-89
2023/07/31 03:57:47;;;;;;;;;;;17.00;86.80;;;;;;5061001;28;20012;-88
2023/07/31 04:00:13;;;;;;;;;;;17.00;86.40;;;;;;5059424;28;19943;-88
2023/07/31 04:02:38;;;;;;;;;;;17.00;86.70;;;;;;5072067;28;19916;-87
2023/07/31 04:05:03;;;;;;;;;;;17.00;86.70;;;;;;5066681;28;20373;-87
2023/07/31 04:07:29;;;;;;;;;;;17.00;86.50;;;;;;5057225;28;20307;-87
2023/07/31 04:09:55;;;;;;;;;;;17.00;86.60;;;;;;5067076;28;19917;-88
2023/07/31 04:12:20;;;;;;;;;;;17.10;86.40;;;;;;5063159;28;19917;-88
2023/07/31 04:14:46;;;;;;;;;;;17.10;86.20;;;;;;5057556;28;20011;-87
2023/07/31 04:17:11;;;;;;;;;;;17.10;85.70;;;;;;5064603;28;19944;-87
2023/07/31 04:19:36;;;;;;;;;;;17.10;85.90;;;;;;5063940;28;20366;-87
2023/07/31 04:22:02;;;;;;;;;;;17.10;86.10;;;;;;5054508;28;19920;-87
2023/07/31 04:24:27;;;;;;;;;;;17.10;85.80;;;;;;5063750;28;19986;-88
2023/07/31 04:26:53;;;;;;;;;;;17.20;85.70;;;;;;5056637;28;19978;-88
2023/07/31 04:29:19;;;;;;;;;;;17.20;85.80;;;;;;5064759;28;19909;-88
2023/07/31 04:31:45;;;;;;;;;;;17.20;85.70;;;;;;5060907;28;20365;-88
2023/07/31 04:34:11;;;;;;;;;;;17.20;85.70;;;;;;5060215;28;19908;-87
2023/07/31 04:36:37;;;;;;;;;;;17.30;85.60;;;;;;5051783;28;19909;-87
2023/07/31 04:39:02;;;;;;;;;;;17.30;85.50;;;;;;5052468;28;20389;-88
2023/07/31 04:41:28;;;;;;;;;;;17.30;85.80;;;;;;5065115;28;19938;-88
2023/07/31 04:43:53;;;;;;;;;;;17.20;86.20;;;;;;5052558;28;19921;-89
2023/07/31 04:46:19;;;;;;;;;;;17.30;85.80;;;;;;5063172;28;19970;-89
2023/07/31 04:48:44;;;;;;;;;;;17.30;85.80;;;;;;5054672;28;19921;-87
2023/07/31 04:51:09;;;;;;;;;;;17.30;85.80;;;;;;5064166;28;19919;-88
2023/07/31 04:53:35;;;;;;;;;;;17.30;86.10;;;;;;5067247;28;19966;-87
2023/07/31 04:56:01;;;;;;;;;;;17.40;86.40;;;;;;5062571;28;20393;-88
2023/07/31 04:58:26;;;;;;;;;;;17.40;86.50;;;;;;5065888;28;19919;-86
2023/07/31 05:00:52;;;;;;;;;;;17.40;86.30;;;;;;5070276;28;19923;-87
2023/07/31 05:03:17;;;;;;;;;;;17.40;86.30;;;;;;5076223;28;19967;-87
2023/07/31 05:05:43;;;;;;;;;;;17.30;86.50;;;;;;5068797;28;20393;-89
2023/07/31 05:08:08;;;;;;;;;;;17.30;86.50;;;;;;5073255;28;20262;-87
2023/07/31 05:10:34;;;;;;;;;;;17.30;86.80;;;;;;5070796;28;19920;-90
2023/07/31 05:12:59;;;;;;;;;;;17.40;86.90;;;;;;5066658;28;19912;-88
2023/07/31 05:15:25;;;;;;;;;;;17.40;86.90;;;;;;5070667;28;19929;-89
2023/07/31 05:17:50;;;;;;;;;;;17.30;87.20;;;;;;5074934;28;19960;-89
2023/07/31 05:20:15;;;;;;;;;;;17.40;86.80;;;;;;5062977;28;19913;-89
2023/07/31 05:22:41;;;;;;;;;;;17.40;86.90;;;;;;5065571;28;19912;-87
2023/07/31 05:25:07;;;;;;;;;;;17.40;87.10;;;;;;5061743;28;19913;-88
2023/07/31 05:27:35;;;;;;;;;;;17.40;86.50;;;;;;5070599;28;19954;-90
2023/07/31 05:30:01;;;;;;;;;;;17.30;87.20;;;;;;5074242;28;19912;-89
2023/07/31 05:32:26;;;;;;;;;;;17.40;87.20;;;;;;5059485;28;20595;-89
2023/07/31 05:34:52;;;;;;;;;;;17.40;86.80;;;;;;5058416;28;20393;-88
2023/07/31 05:37:17;;;;;;;;;;;17.50;86.80;;;;;;5063729;28;19917;-89
2023/07/31 05:39:43;;;;;;;;;;;17.50;86.80;;;;;;5057651;28;19938;-88
2023/07/31 05:42:09;;;;;;;;;;;17.50;86.70;;;;;;5055938;28;19913;-86
2023/07/31 05:47:13;;;;;;;;;;;17.50;87.20;;;;;;5081927;27;19935;-81
2023/07/31 05:49:38;;;;;;;;;;;17.40;87.20;;;;;;5059334;28;19919;-80
2023/07/31 05:52:04;;;;;;;;;;;17.50;87.10;;;;;;5050821;28;19920;-82
2023/07/31 05:54:29;;;;;;;;;;;17.50;86.90;;;;;;5050222;28;19963;-81
2023/07/31 05:56:55;;;;;;;;;;;17.50;86.70;;;;;;5055431;28;19921;-83
2023/07/31 05:59:20;;;;;;;;;;;17.50;87.20;;;;;;5059841;28;19913;-82
2023/07/31 06:01:46;;;;;;;;;;;17.50;87.10;;;;;;5056281;28;19913;-81
2023/07/31 06:04:11;;;;;;;;;;;17.50;87.30;;;;;;5048824;28;19917;-82
2023/07/31 06:06:37;;;;;;;;;;;17.50;87.60;;;;;;5057977;28;19970;-80
2023/07/31 06:09:03;;;;;;;;;;;17.30;88.30;;;;;;5057420;28;19952;-81
2023/07/31 06:11:29;;;;;;;;;;;17.30;88.60;;;;;;5056595;28;19913;-81
2023/07/31 06:13:54;;;;;;;;;;;17.30;88.60;;;;;;5047032;28;19920;-82
2023/07/31 06:16:21;;;;;;;;;;;17.20;88.80;;;;;;5051823;28;19912;-81
2023/07/31 06:18:47;;;;;;;;;;;17.30;88.90;;;;;;5052129;28;19909;-81
2023/07/31 06:21:12;;;;;;;;;;;17.30;89.10;;;;;;5053984;28;19913;-80
2023/07/31 06:23:38;;;;;;;;;;;17.30;89.00;;;;;;5048852;28;20412;-81
2023/07/31 06:26:03;;;;;;;;;;;17.30;89.00;;;;;;5053036;28;19916;-81
2023/07/31 06:28:29;;;;;;;;;;;17.30;88.80;;;;;;5052154;28;20226;-82
2023/07/31 06:30:55;;;;;;;;;;;17.30;89.10;;;;;;5051521;28;19921;-79
2023/07/31 06:33:20;;;;;;;;;;;17.30;88.90;;;;;;5061163;28;19912;-80
2023/07/31 06:35:46;;;;;;;;;;;17.30;89.20;;;;;;5052509;28;20047;-80
2023/07/31 06:38:11;;;;;;;;;;;17.30;88.70;;;;;;5045704;28;19913;-79
2023/07/31 06:40:37;;;;;;;;;;;17.40;88.70;;;;;;5055174;28;19913;-80
2023/07/31 06:43:07;;;;;;;;;;;17.60;88.20;;;;;;5050013;28;20368;-81
2023/07/31 06:45:36;;;;;;;;;;;17.60;88.10;;;;;;5067306;28;19982;-83
2023/07/31 06:48:02;;;;;;;;;;;17.50;88.30;;;;;;5080835;28;19938;-80
2023/07/31 06:50:28;;;;;;;;;;;17.50;88.40;;;;;;5077145;28;20011;-81
2023/07/31 06:52:53;;;;;;;;;;;17.50;88.60;;;;;;5075325;28;19939;-81
2023/07/31 06:55:20;;;;;;;;;;;17.60;88.70;;;;;;5079284;28;19913;-80
2023/07/31 06:57:46;;;;;;;;;;;17.60;88.50;;;;;;5074410;28;19931;-81
2023/07/31 07:00:11;;;;;;;;;;;17.60;88.40;;;;;;5069491;28;19909;-80
2023/07/31 07:02:37;;;;;;;;;;;17.60;88.40;;;;;;5063218;28;19912;-80
2023/07/31 07:05:02;;;;;;;;;;;17.50;88.60;;;;;;5063819;28;20016;-82
2023/07/31 07:07:28;;;;;;;;;;;17.60;88.60;;;;;;5058210;28;19913;-80
2023/07/31 07:09:53;;;;;;;;;;;17.60;88.50;;;;;;5063771;28;19913;-82
2023/07/31 07:12:19;;;;;;;;;;;17.60;88.60;;;;;;5065403;28;19912;-82
2023/07/31 07:14:47;;;;;;;;;;;17.60;88.00;;;;;;5058354;28;19960;-80
2023/07/31 07:17:13;;;;;;;;;;;17.60;88.10;;;;;;5063185;28;19958;-82
2023/07/31 07:19:42;;;;;;;;;;;17.50;88.40;;;;;;5055725;28;19917;-80
2023/07/31 07:22:07;;;;;;;;;;;17.50;88.50;;;;;;5082004;28;19967;-82
2023/07/31 07:24:33;;;;;;;;;;;17.50;88.40;;;;;;5059681;28;20326;-82
2023/07/31 07:26:58;;;;;;;;;;;17.50;88.80;;;;;;5060804;28;20368;-81
2023/07/31 07:29:24;;;;;;;;;;;17.40;89.30;;;;;;5059757;28;19913;-81
2023/07/31 07:31:49;;;;;;;;;;;17.40;89.30;;;;;;5055100;28;19924;-80
2023/07/31 07:34:15;;;;;;;;;;;17.40;89.70;;;;;;5052299;28;20137;-81
2023/07/31 07:36:40;;;;;;;;;;;17.50;89.70;;;;;;5059990;28;19952;-82
2023/07/31 07:39:06;;;;;;;;;;;17.50;89.50;;;;;;5063396;28;20253;-82
2023/07/31 07:41:31;;;;;;;;;;;17.50;89.70;;;;;;5057161;28;19982;-82
2023/07/31 07:43:57;;;;;;;;;;;17.40;89.80;;;;;;5062491;28;20299;-82
2023/07/31 07:46:23;;;;;;;;;;;17.50;89.80;;;;;;5057055;28;19979;-81
2023/07/31 07:48:48;;;;;;;;;;;17.40;89.90;;;;;;5063478;28;20546;-82
2023/07/31 07:51:14;;;;;;;;;;;17.50;89.60;;;;;;5068729;28;20003;-82
2023/07/31 07:53:39;;;;;;;;;;;17.50;89.50;;;;;;5060514;28;19913;-82
2023/07/31 07:56:04;;;;;;;;;;;17.50;89.40;;;;;;5061061;28;20292;-83
2023/07/31 07:58:30;;;;;;;;;;;17.50;89.60;;;;;;5064024;28;19956;-83
2023/07/31 08:00:55;;;;;;;;;;;17.60;89.80;;;;;;5058840;28;19909;-82
2023/07/31 08:03:21;;;;;;;;;;;17.60;89.40;;;;;;5065874;28;19917;-83
2023/07/31 08:05:46;;;;;;;;;;;17.50;89.60;;;;;;5069624;28;19917;-82
2023/07/31 08:08:18;;;;;;;;;;;17.60;89.70;;;;;;5063140;28;19917;-82
2023/07/31 08:10:43;;;;;;;;;;;17.50;89.70;;;;;;5059170;28;19912;-82
2023/07/31 08:13:10;;;;;;;;;;;17.50;89.80;;;;;;5069421;28;20283;-82
2023/07/31 08:15:35;;;;;;;;;;;17.50;89.60;;;;;;5054741;28;20118;-82
2023/07/31 08:18:00;;;;;;;;;;;17.50;89.20;;;;;;5062313;28;20083;-82
2023/07/31 08:20:26;;;;;;;;;;;17.50;89.30;;;;;;5059394;28;19909;-86
2023/07/31 08:22:52;;;;;;;;;;;17.50;89.50;;;;;;5075355;28;19976;-83
2023/07/31 08:25:18;;;;;;;;;;;17.50;89.90;;;;;;5059821;28;20074;-81
2023/07/31 08:27:44;;;;;;;;;;;17.50;89.70;;;;;;5072360;28;19924;-82
2023/07/31 08:30:10;;;;;;;;;;;17.50;89.90;;;;;;5061358;28;19909;-83
2023/07/31 08:32:35;;;;;;;;;;;17.50;90.00;;;;;;5064597;28;19916;-82
2023/07/31 08:35:01;;;;;;;;;;;17.50;90.10;;;;;;5059079;28;19912;-81
2023/07/31 08:37:26;;;;;;;;;;;17.50;90.00;;;;;;5069389;28;19979;-81
2023/07/31 08:39:52;;;;;;;;;;;17.50;89.80;;;;;;5067280;28;19986;-81
2023/07/31 08:42:17;;;;;;;;;;;17.60;90.10;;;;;;5071961;28;19935;-81
2023/07/31 08:44:43;;;;;;;;;;;17.70;90.20;;;;;;5062086;28;19952;-82
2023/07/31 08:47:09;;;;;;;;;;;17.60;89.80;;;;;;5058645;28;19928;-81
2023/07/31 08:49:34;;;;;;;;;;;17.60;89.50;;;;;;5055866;28;20481;-81
2023/07/31 08:52:00;;;;;;;;;;;17.60;89.20;;;;;;5060761;28;19920;-82
2023/07/31 08:54:30;;;;;;;;;;;17.60;89.50;;;;;;5059729;28;19948;-82
2023/07/31 08:56:57;;;;;;;;;;;17.50;89.90;;;;;;5064797;28;19913;-82
2023/07/31 08:59:23;;;;;;;;;;;17.60;90.20;;;;;;5055151;28;19958;-82
2023/07/31 09:01:49;;;;;;;;;;;17.60;90.00;;;;;;5065945;28;19916;-81
2023/07/31 09:04:16;;;;;;;;;;;17.40;89.80;;;;;;5063187;28;19962;-81
2023/07/31 09:06:42;;;;;;;;;;;17.40;90.10;;;;;;5058962;28;20319;-81
2023/07/31 09:09:07;;;;;;;;;;;17.30;90.20;;;;;;5059297;28;19913;-81
2023/07/31 09:11:33;;;;;;;;;;;17.40;90.70;;;;;;5060298;28;19927;-82
2023/07/31 09:14:01;;;;;;;;;;;17.30;90.60;;;;;;5056573;28;20510;-81
2023/07/31 09:16:30;;;;;;;;;;;17.30;90.00;;;;;;5060934;28;19916;-82
2023/07/31 09:18:56;;;;;;;;;;;17.30;90.40;;;;;;5072076;28;19931;-81
2023/07/31 09:21:23;;;;;;;;;;;17.30;90.70;;;;;;5059947;28;19924;-81
2023/07/31 09:23:49;;;;;;;;;;;17.40;90.30;;;;;;5063219;28;19986;-81
2023/07/31 09:26:31;;;;;;;;;;;17.40;90.90;;;;;;5058239;28;20396;-82
2023/07/31 09:28:57;;;;;;;;;;;17.30;90.90;;;;;;5065216;28;20320;-83
2023/07/31 09:31:52;;;;;;;;;;;17.30;91.20;;;;;;5060209;28;19959;-82
2023/07/31 09:34:17;;;;;;;;;;;17.30;90.90;;;;;;5039834;28;19943;-81
2023/07/31 09:36:44;;;;;;;;;;;17.40;91.20;;;;;;5056680;28;20493;-81
2023/07/31 09:39:12;;;;;;;;;;;17.30;91.10;;;;;;5062956;28;20346;-80
2023/07/31 09:41:39;;;;;;;;;;;17.30;91.30;;;;;;5062054;28;19913;-80
2023/07/31 09:44:04;;;;;;;;;;;17.50;91.20;;;;;;5057454;28;20358;-81
2023/07/31 09:46:30;;;;;;;;;;;17.40;90.90;;;;;;5061410;28;19925;-80
2023/07/31 09:49:05;;;;;;;;;;;17.40;91.20;;;;;;5067028;28;20014;-81
2023/07/31 09:51:31;;;;;;;;;;;17.50;91.00;;;;;;5063036;28;20482;-80
2023/07/31 09:53:56;;;;;;;;;;;17.50;91.00;;;;;;5064113;28;19952;-80
2023/07/31 09:56:23;;;;;;;;;;;17.60;91.30;;;;;;5068057;28;19944;-80
2023/07/31 09:58:49;;;;;;;;;;;17.60;91.30;;;;;;5057956;28;20034;-81
2023/07/31 10:01:14;;;;;;;;;;;17.60;91.30;;;;;;5067917;28;19916;-80
2023/07/31 10:03:40;;;;;;;;;;;17.60;91.50;;;;;;5061760;28;19921;-81
2023/07/31 10:06:06;;;;;;;;;;;17.60;91.00;;;;;;5062808;28;19916;-82
2023/07/31 10:08:34;;;;;;;;;;;17.60;91.10;;;;;;5067271;28;19920;-81
2023/07/31 10:11:00;;;;;;;;;;;17.70;90.90;;;;;;5065559;28;20004;-82
2023/07/31 10:13:27;;;;;;;;;;;17.70;90.90;;;;;;5062949;28;19999;-81
2023/07/31 10:15:53;;;;;;;;;;;17.70;90.60;;;;;;5055906;28;19923;-81
2023/07/31 10:18:19;;;;;;;;;;;17.60;90.70;;;;;;5058888;28;20004;-80
2023/07/31 10:20:45;;;;;;;;;;;17.60;90.80;;;;;;5060931;28;19924;-81
2023/07/31 10:23:11;;;;;;;;;;;17.70;91.00;;;;;;5056029;28;19921;-81
2023/07/31 10:25:37;;;;;;;;;;;17.70;91.00;;;;;;5062774;28;19923;-83
2023/07/31 10:28:03;;;;;;;;;;;17.80;90.80;;;;;;5060539;28;19909;-81
2023/07/31 10:30:30;;;;;;;;;;;17.80;90.60;;;;;;5064718;28;20383;-82
2023/07/31 10:32:55;;;;;;;;;;;17.70;90.70;;;;;;5059758;28;19923;-81
2023/07/31 10:35:22;;;;;;;;;;;17.70;90.60;;;;;;5068524;28;19909;-82
2023/07/31 10:37:47;;;;;;;;;;;17.80;90.60;;;;;;5065216;28;19917;-80
2023/07/31 10:40:16;;;;;;;;;;;17.70;90.40;;;;;;5057514;28;19917;-81
2023/07/31 10:42:44;;;;;;;;;;;17.80;91.10;;;;;;5064412;28;19921;-80
2023/07/31 10:45:10;;;;;;;;;;;17.80;91.10;;;;;;5064149;28;19920;-80
2023/07/31 10:47:45;;;;;;;;;;;17.80;90.70;;;;;;5059363;28;19913;-82
2023/07/31 10:50:20;;;;;;;;;;;17.80;90.60;;;;;;5061395;28;19912;-82
2023/07/31 10:52:55;;;;;;;;;;;17.70;90.80;;;;;;5071352;28;19916;-82
2023/07/31 10:55:21;;;;;;;;;;;17.70;90.90;;;;;;5065192;28;19912;-82
2023/07/31 10:57:49;;;;;;;;;;;17.60;90.90;;;;;;5065146;28;19920;-82
2023/07/31 11:00:22;;;;;;;;;;;17.60;90.90;;;;;;5058623;28;20556;-83
2023/07/31 11:03:10;;;;;;;;;;;17.60;91.20;;;;;;5064705;28;19957;-82
2023/07/31 11:05:44;;;;;;;;;;;17.70;91.00;;;;;;5056815;28;19962;-83
2023/07/31 11:08:13;;;;;;;;;;;17.70;90.90;;;;;;5065454;28;20326;-82
2023/07/31 11:10:39;;;;;;;;;;;17.80;91.30;;;;;;5067790;28;19952;-83
2023/07/31 11:13:05;;;;;;;;;;;17.60;90.80;;;;;;5062827;28;19917;-82
2023/07/31 11:15:31;;;;;;;;;;;17.60;91.10;;;;;;5068232;28;20287;-83
2023/07/31 11:17:58;;;;;;;;;;;17.60;91.20;;;;;;5070848;28;19979;-82
2023/07/31 11:20:26;;;;;;;;;;;17.70;91.20;;;;;;5069540;28;19943;-82
2023/07/31 11:22:52;;;;;;;;;;;17.60;91.00;;;;;;5062888;28;19924;-81
2023/07/31 11:25:18;;;;;;;;;;;17.60;91.40;;;;;;5058409;28;19917;-82
2023/07/31 11:27:43;;;;;;;;;;;17.80;91.00;;;;;;5069627;28;19913;-82
2023/07/31 11:30:09;;;;;;;;;;;17.70;91.00;;;;;;5070265;28;19916;-82
2023/07/31 11:32:38;;;;;;;;;;;17.70;90.60;;;;;;5088132;28;20284;-82
2023/07/31 11:35:05;;;;;;;;;;;17.80;90.60;;;;;;5066733;28;19913;-83
2023/07/31 11:37:41;;;;;;;;;;;17.80;90.20;;;;;;5065459;28;19920;-83
2023/07/31 11:40:07;;;;;;;;;;;17.80;90.20;;;;;;5065472;28;19923;-82
2023/07/31 11:42:33;;;;;;;;;;;17.90;90.30;;;;;;5067313;28;19913;-83
2023/07/31 11:45:01;;;;;;;;;;;18.10;90.30;;;;;;5063348;28;19912;-83
2023/07/31 11:47:27;;;;;;;;;;;18.10;90.00;;;;;;5069143;28;19912;-83
2023/07/31 11:49:53;;;;;;;;;;;18.20;90.10;;;;;;5053497;28;19924;-83
2023/07/31 11:52:20;;;;;;;;;;;18.30;89.40;;;;;;5070077;28;19909;-81
2023/07/31 11:54:46;;;;;;;;;;;18.20;89.40;;;;;;5062709;28;20359;-82
2023/07/31 11:57:12;;;;;;;;;;;18.30;89.20;;;;;;5066594;28;19908;-83
2023/07/31 11:59:38;;;;;;;;;;;18.40;89.30;;;;;;5065132;28;20014;-82
2023/07/31 12:02:03;;;;;;;;;;;18.50;88.80;;;;;;5067559;28;20637;-82
2023/07/31 12:04:29;;;;;;;;;;;18.60;89.00;;;;;;5061658;28;19959;-81
2023/07/31 12:06:55;;;;;;;;;;;18.70;88.70;;;;;;5066599;28;19931;-82
2023/07/31 12:09:20;;;;;;;;;;;18.70;88.20;;;;;;5068188;28;19920;-82
2023/07/31 12:11:47;;;;;;;;;;;18.70;88.40;;;;;;5071233;28;20387;-82
2023/07/31 12:14:26;;;;;;;;;;;18.80;88.30;;;;;;5068837;28;20276;-85
2023/07/31 12:16:59;;;;;;;;;;;18.80;88.20;;;;;;5065937;28;19912;-83
2023/07/31 12:19:29;;;;;;;;;;;18.80;87.80;;;;;;5061608;28;19913;-84
2023/07/31 12:21:55;;;;;;;;;;;18.90;87.30;;;;;;5055552;28;20038;-84
2023/07/31 12:24:20;;;;;;;;;;;19.00;87.30;;;;;;5070497;28;19963;-84
2023/07/31 12:26:49;;;;;;;;;;;19.00;87.60;;;;;;5068471;28;19924;-83
2023/07/31 12:29:15;;;;;;;;;;;19.00;87.50;;;;;;5058078;28;19956;-82
2023/07/31 12:31:41;;;;;;;;;;;19.00;87.40;;;;;;5061049;28;19951;-82
2023/07/31 12:34:17;;;;;;;;;;;19.00;87.60;;;;;;5068869;28;20657;-82
2023/07/31 12:36:42;;;;;;;;;;;19.00;87.40;;;;;;5068737;28;20225;-82
2023/07/31 12:39:08;;;;;;;;;;;19.00;87.00;;;;;;5059461;28;19919;-83
2023/07/31 12:41:33;;;;;;;;;;;19.00;87.30;;;;;;5063990;28;20197;-83
2023/07/31 12:43:59;;;;;;;;;;;18.80;87.30;;;;;;5058031;28;20295;-82
2023/07/31 12:46:24;;;;;;;;;;;18.80;87.70;;;;;;5065470;28;20003;-83
2023/07/31 12:48:50;;;;;;;;;;;18.70;87.60;;;;;;5062351;28;19928;-83
2023/07/31 12:51:15;;;;;;;;;;;18.70;88.00;;;;;;5072301;28;19912;-83
2023/07/31 12:53:41;;;;;;;;;;;18.60;88.50;;;;;;5063947;28;19920;-83
2023/07/31 12:56:06;;;;;;;;;;;18.60;88.50;;;;;;5059746;28;19923;-84
2023/07/31 12:58:32;;;;;;;;;;;18.60;88.60;;;;;;5061757;28;19912;-85
2023/07/31 13:00:57;;;;;;;;;;;18.60;88.80;;;;;;5063257;28;19919;-85
2023/07/31 13:03:23;;;;;;;;;;;18.60;88.60;;;;;;5059158;28;20519;-85
2023/07/31 13:05:48;;;;;;;;;;;18.70;88.60;;;;;;5060059;28;19924;-85
2023/07/31 13:08:15;;;;;;;;;;;18.80;88.40;;;;;;5060655;28;19964;-84
2023/07/31 13:10:41;;;;;;;;;;;18.80;87.90;;;;;;5055001;28;19917;-83
2023/07/31 13:13:06;;;;;;;;;;;18.90;87.90;;;;;;5061911;28;19935;-84
2023/07/31 13:15:32;;;;;;;;;;;18.90;87.60;;;;;;5055876;28;20320;-84
2023/07/31 13:17:57;;;;;;;;;;;19.00;87.40;;;;;;5066182;28;20014;-84
2023/07/31 13:20:23;;;;;;;;;;;19.00;87.00;;;;;;5067491;28;19970;-85
2023/07/31 13:22:48;;;;;;;;;;;19.00;86.90;;;;;;5067602;28;19913;-83
2023/07/31 13:25:14;;;;;;;;;;;19.00;86.80;;;;;;5063927;28;19919;-85
2023/07/31 13:27:39;;;;;;;;;;;19.00;87.20;;;;;;5061427;28;19912;-84
2023/07/31 13:30:05;;;;;;;;;;;18.90;87.60;;;;;;5061633;28;20556;-85
2023/07/31 13:32:31;;;;;;;;;;;18.90;87.90;;;;;;5061414;28;19912;-85
2023/07/31 13:34:57;;;;;;;;;;;19.00;88.00;;;;;;5063241;28;19939;-86
2023/07/31 13:37:22;;;;;;;;;;;19.00;88.40;;;;;;5061079;28;20377;-82
2023/07/31 13:39:48;;;;;;;;;;;18.90;88.40;;;;;;5066082;28;19959;-83
2023/07/31 13:42:13;;;;;;;;;;;18.90;88.90;;;;;;5063161;28;20587;-85
2023/07/31 13:44:39;;;;;;;;;;;19.00;88.70;;;;;;5084881;28;19947;-84
2023/07/31 13:47:05;;;;;;;;;;;19.10;87.80;;;;;;5070487;28;19952;-85
2023/07/31 13:49:30;;;;;;;;;;;19.10;87.60;;;;;;5066398;28;19919;-83
2023/07/31 13:51:56;;;;;;;;;;;19.00;87.10;;;;;;5062200;28;19924;-83
2023/07/31 13:54:22;;;;;;;;;;;18.90;87.70;;;;;;5061118;28;19913;-83
2023/07/31 13:56:47;;;;;;;;;;;19.00;87.40;;;;;;5056926;28;20003;-83
2023/07/31 13:59:14;;;;;;;;;;;18.90;87.30;;;;;;5068442;28;20000;-83
2023/07/31 14:01:40;;;;;;;;;;;19.00;87.50;;;;;;5070206;28;19916;-82
2023/07/31 14:04:05;;;;;;;;;;;18.90;87.20;;;;;;5073781;28;19966;-82
2023/07/31 14:06:31;;;;;;;;;;;19.00;87.30;;;;;;5060644;28;19916;-83
2023/07/31 14:08:56;;;;;;;;;;;19.00;87.30;;;;;;5062450;28;19913;-81
2023/07/31 14:11:22;;;;;;;;;;;19.10;87.00;;;;;;5080114;28;20384;-83
2023/07/31 14:13:48;;;;;;;;;;;19.20;86.90;;;;;;5076944;28;19913;-83